Whittier, AK (99693)

10:47 AM AKDT on July 26, 2016 (GMT -0800)
Portage Glacier | | Change Station

Elev 102 ft 60.78 °N, 148.84 °W | Updated 54 minutes ago

Overcast
Overcast
50 °F
Feels Like 50 °F
N
6
Wind Variable Wind from ESE

Today
High -- | Low -- °F
--% Chance of Precip.
Yesterday
High -- | Low -- °F
Precip. -- in
Pressure 29.93 in
Visibility 10.0 miles
Clouds Overcast 4100 ft
Dew Point 45 °F
Humidity 83%
Rainfall 0.19 in
Snow Depth Not available.
5:16 AM 10:43 PM
Waning Gibbous, 52% visible
METAR PATO 261753Z AUTO 11005KT 10SM OVC041 10/07 A2992 RMK AO2 SLP133 60005 T01000072 10128 20094 58001 TSNO
Pressure 29.93 in
Visibility 10.0 miles
Clouds Overcast 4100 ft
Dew Point 45 °F
Humidity 83%
Rainfall 0.19 in
Snow Depth Not available.
5:16 AM 10:43 PM
Waning Gibbous, 52% visible
METAR PATO 261753Z AUTO 11005KT 10SM OVC041 10/07 A2992 RMK AO2 SLP133 60005 T01000072 10128 20094 58001 TSNO

10-Day Weather Forecast

Almanac

Astronomy

Jul. 26, 2016 Rise Set
Actual Time
Civil Twilight
Nautical Twilight
Astronomical Twilight
Moon
Length of Visible Light
Length of Day
Tomorrow will be .
, % of the Moon is Illuminated

Today's Extremes

State Highs State Lows

Community

WunderPhotos

Upload Photos

1,927,653 photos uploaded!

WunderBlog® & News

Nearby

Air Quality

  Air Quality AQ Index Pollutant
Not available.

Snow Depth

Station Depth Elevation

Earthquake Activity

City Distance Mag. Time & Date
Minimum magnitude displayed is 2.5.

Coastal Water Temperatures

Place Temperature

Stations

Nearby Weather Stations

Station Location Temp. Windchill Dew Point Humidity Wind Precip. Elev Updated Type
                   

Watches & Warnings

There are currently no watches in effect.